KMGR/MGR METAR and TAF weather

Enter ICAO airport designator
Station Type Date Time Source
KMGR METAR 2019/02/20 07:35 UTC NOAA

KMGR 200735Z AUTO 08006KT 10SM OVC007 10/08 A3019 RMK AO2


Station Type Date Time Source
KMGR Decoded METAR 2019/02/20 07:35 UTC NOAA

Moultrie, Moultrie Municipal Airport, GA, United States (KMGR) 31-05-05N 083-48-11W
Feb 20, 2019 - 02:35 AM EST / 2019.02.20 0735 UTC
Wind: from the E (080 degrees) at 7 MPH (6 KT):0
Visibility: 10 mile(s):0
Sky conditions: overcast
Temperature: 50 F (10 C)
Dew Point: 46 F (8 C)
Relative Humidity: 87%
Pressure (altimeter): 30.19 in. Hg (1022 hPa)
ob: KMGR 200735Z AUTO 08006KT 10SM OVC007 10/08 A3019 RMK AO2
cycle: 7

Station Type Date Time Source
KMGR TAF UTC NOAA

Error!


Example: see airport list